sensor_id;sensor_type;location;lat;lon;timestamp;temperature;humidity
4245;DHT22;2136;48.502;9.194;2023-10-08T00:00:25;15.90;55.90
4245;DHT22;2136;48.502;9.194;2023-10-08T00:03:13;15.90;55.90
4245;DHT22;2136;48.502;9.194;2023-10-08T00:05:41;15.80;56.00
4245;DHT22;2136;48.502;9.194;2023-10-08T00:08:08;15.80;55.80
4245;DHT22;2136;48.502;9.194;2023-10-08T00:10:36;15.80;55.80
4245;DHT22;2136;48.502;9.194;2023-10-08T00:13:04;15.80;55.80
4245;DHT22;2136;48.502;9.194;2023-10-08T00:15:34;15.80;55.90
4245;DHT22;2136;48.502;9.194;2023-10-08T00:18:03;15.80;55.90
4245;DHT22;2136;48.502;9.194;2023-10-08T00:20:31;15.80;55.90
4245;DHT22;2136;48.502;9.194;2023-10-08T00:23:03;15.70;55.90
4245;DHT22;2136;48.502;9.194;2023-10-08T00:25:33;15.70;55.80
4245;DHT22;2136;48.502;9.194;2023-10-08T00:28:07;15.70;55.80
4245;DHT22;2136;48.502;9.194;2023-10-08T00:30:38;15.70;55.80
4245;DHT22;2136;48.502;9.194;2023-10-08T00:33:05;15.70;55.70
4245;DHT22;2136;48.502;9.194;2023-10-08T00:35:37;15.70;55.70
4245;DHT22;2136;48.502;9.194;2023-10-08T00:38:04;15.70;56.10
4245;DHT22;2136;48.502;9.194;2023-10-08T00:40:36;15.70;56.00
4245;DHT22;2136;48.502;9.194;2023-10-08T00:43:04;15.70;56.20
4245;DHT22;2136;48.502;9.194;2023-10-08T00:45:37;15.70;56.40
4245;DHT22;2136;48.502;9.194;2023-10-08T00:48:09;15.70;56.90
4245;DHT22;2136;48.502;9.194;2023-10-08T00:50:42;15.70;57.10
4245;DHT22;2136;48.502;9.194;2023-10-08T00:53:09;15.70;57.60
4245;DHT22;2136;48.502;9.194;2023-10-08T00:55:43;15.80;57.40
4245;DHT22;2136;48.502;9.194;2023-10-08T00:58:19;15.80;57.50
4245;DHT22;2136;48.502;9.194;2023-10-08T01:00:52;15.80;57.70
4245;DHT22;2136;48.502;9.194;2023-10-08T01:03:25;15.70;57.80
4245;DHT22;2136;48.502;9.194;2023-10-08T01:05:53;15.70;58.00
4245;DHT22;2136;48.502;9.194;2023-10-08T01:08:20;15.70;58.10
4245;DHT22;2136;48.502;9.194;2023-10-08T01:11:00;15.70;58.30
4245;DHT22;2136;48.502;9.194;2023-10-08T01:13:42;15.70;58.60
4245;DHT22;2136;48.502;9.194;2023-10-08T01:16:12;15.70;58.70
4245;DHT22;2136;48.502;9.194;2023-10-08T01:18:40;15.60;58.80
4245;DHT22;2136;48.502;9.194;2023-10-08T01:21:17;15.60;59.10
4245;DHT22;2136;48.502;9.194;2023-10-08T01:24:01;15.60;59.10
4245;DHT22;2136;48.502;9.194;2023-10-08T01:26:31;15.60;59.20
4245;DHT22;2136;48.502;9.194;2023-10-08T01:28:58;15.60;59.20
4245;DHT22;2136;48.502;9.194;2023-10-08T01:31:28;15.70;59.20
4245;DHT22;2136;48.502;9.194;2023-10-08T01:33:55;15.70;58.80
4245;DHT22;2136;48.502;9.194;2023-10-08T01:36:23;15.70;58.80
4245;DHT22;2136;48.502;9.194;2023-10-08T01:38:51;15.70;58.70
4245;DHT22;2136;48.502;9.194;2023-10-08T01:41:21;15.70;58.40
4245;DHT22;2136;48.502;9.194;2023-10-08T01:43:55;15.70;58.40
4245;DHT22;2136;48.502;9.194;2023-10-08T01:46:24;15.70;58.40
4245;DHT22;2136;48.502;9.194;2023-10-08T01:48:52;15.80;58.40
4245;DHT22;2136;48.502;9.194;2023-10-08T01:51:29;15.70;58.40
4245;DHT22;2136;48.502;9.194;2023-10-08T01:54:03;15.70;58.60
4245;DHT22;2136;48.502;9.194;2023-10-08T01:56:38;15.70;58.80
4245;DHT22;2136;48.502;9.194;2023-10-08T01:59:07;15.70;59.20
4245;DHT22;2136;48.502;9.194;2023-10-08T02:01:35;15.60;59.10
4245;DHT22;2136;48.502;9.194;2023-10-08T02:04:02;15.60;59.30
4245;DHT22;2136;48.502;9.194;2023-10-08T02:06:29;15.50;59.30
4245;DHT22;2136;48.502;9.194;2023-10-08T02:08:57;15.50;59.40
4245;DHT22;2136;48.502;9.194;2023-10-08T02:11:24;15.50;59.50
4245;DHT22;2136;48.502;9.194;2023-10-08T02:13:54;15.50;59.40
4245;DHT22;2136;48.502;9.194;2023-10-08T02:16:21;15.50;59.40
4245;DHT22;2136;48.502;9.194;2023-10-08T02:18:48;15.40;59.30
4245;DHT22;2136;48.502;9.194;2023-10-08T02:21:16;15.40;59.50
4245;DHT22;2136;48.502;9.194;2023-10-08T02:23:43;15.50;59.50
4245;DHT22;2136;48.502;9.194;2023-10-08T02:26:10;15.30;59.20
4245;DHT22;2136;48.502;9.194;2023-10-08T02:28:37;15.40;59.20
4245;DHT22;2136;48.502;9.194;2023-10-08T02:31:05;15.40;59.00
4245;DHT22;2136;48.502;9.194;2023-10-08T02:33:34;15.30;58.80
4245;DHT22;2136;48.502;9.194;2023-10-08T02:36:02;15.30;58.70
4245;DHT22;2136;48.502;9.194;2023-10-08T02:38:30;15.40;59.30
4245;DHT22;2136;48.502;9.194;2023-10-08T02:41:03;15.40;58.50
4245;DHT22;2136;48.502;9.194;2023-10-08T02:43:32;15.40;58.50
4245;DHT22;2136;48.502;9.194;2023-10-08T02:45:59;15.40;58.40
4245;DHT22;2136;48.502;9.194;2023-10-08T02:48:27;15.40;58.50
4245;DHT22;2136;48.502;9.194;2023-10-08T02:50:55;15.40;58.50
4245;DHT22;2136;48.502;9.194;2023-10-08T02:53:32;15.40;59.10
4245;DHT22;2136;48.502;9.194;2023-10-08T02:55:59;15.50;58.50
4245;DHT22;2136;48.502;9.194;2023-10-08T02:58:27;15.50;58.50
4245;DHT22;2136;48.502;9.194;2023-10-08T03:00:56;15.50;58.60
4245;DHT22;2136;48.502;9.194;2023-10-08T03:03:23;15.50;58.50
4245;DHT22;2136;48.502;9.194;2023-10-08T03:05:52;15.50;58.40
4245;DHT22;2136;48.502;9.194;2023-10-08T03:08:22;15.50;58.50
4245;DHT22;2136;48.502;9.194;2023-10-08T03:10:50;15.50;58.50
4245;DHT22;2136;48.502;9.194;2023-10-08T03:13:20;15.50;58.70
4245;DHT22;2136;48.502;9.194;2023-10-08T03:15:48;15.50;58.70
4245;DHT22;2136;48.502;9.194;2023-10-08T03:18:34;15.50;58.90
4245;DHT22;2136;48.502;9.194;2023-10-08T03:21:03;15.40;58.90
4245;DHT22;2136;48.502;9.194;2023-10-08T03:23:32;15.40;59.00
4245;DHT22;2136;48.502;9.194;2023-10-08T03:26:01;15.40;58.90
4245;DHT22;2136;48.502;9.194;2023-10-08T03:28:36;15.50;59.00
4245;DHT22;2136;48.502;9.194;2023-10-08T03:31:04;15.40;59.10
4245;DHT22;2136;48.502;9.194;2023-10-08T03:33:32;15.40;59.00
4245;DHT22;2136;48.502;9.194;2023-10-08T03:36:02;15.40;58.70
4245;DHT22;2136;48.502;9.194;2023-10-08T03:38:40;15.40;58.90
4245;DHT22;2136;48.502;9.194;2023-10-08T03:41:21;15.30;58.70
4245;DHT22;2136;48.502;9.194;2023-10-08T03:43:53;15.30;58.70
4245;DHT22;2136;48.502;9.194;2023-10-08T03:46:27;15.30;58.80
4245;DHT22;2136;48.502;9.194;2023-10-08T03:48:54;15.20;59.10
4245;DHT22;2136;48.502;9.194;2023-10-08T03:51:24;15.20;59.20
4245;DHT22;2136;48.502;9.194;2023-10-08T03:53:53;15.20;59.40
4245;DHT22;2136;48.502;9.194;2023-10-08T03:56:41;15.20;59.50
4245;DHT22;2136;48.502;9.194;2023-10-08T03:59:11;15.10;60.10
4245;DHT22;2136;48.502;9.194;2023-10-08T04:01:40;15.00;60.40
4245;DHT22;2136;48.502;9.194;2023-10-08T04:04:08;15.00;60.60
4245;DHT22;2136;48.502;9.194;2023-10-08T04:06:41;15.00;60.60
4245;DHT22;2136;48.502;9.194;2023-10-08T04:09:15;14.90;60.80
4245;DHT22;2136;48.502;9.194;2023-10-08T04:11:52;14.90;61.00
4245;DHT22;2136;48.502;9.194;2023-10-08T04:14:19;14.90;61.10
4245;DHT22;2136;48.502;9.194;2023-10-08T04:16:46;14.90;61.40
4245;DHT22;2136;48.502;9.194;2023-10-08T04:19:17;14.90;61.60
4245;DHT22;2136;48.502;9.194;2023-10-08T04:21:46;14.80;61.50
4245;DHT22;2136;48.502;9.194;2023-10-08T04:24:20;14.80;61.50
4245;DHT22;2136;48.502;9.194;2023-10-08T04:26:56;14.80;62.30
4245;DHT22;2136;48.502;9.194;2023-10-08T04:29:24;14.80;62.40
4245;DHT22;2136;48.502;9.194;2023-10-08T04:31:51;14.80;62.60
4245;DHT22;2136;48.502;9.194;2023-10-08T04:34:27;14.70;62.40
4245;DHT22;2136;48.502;9.194;2023-10-08T04:36:56;14.70;62.40
4245;DHT22;2136;48.502;9.194;2023-10-08T04:39:26;14.70;62.50
4245;DHT22;2136;48.502;9.194;2023-10-08T04:41:58;14.60;62.50
4245;DHT22;2136;48.502;9.194;2023-10-08T04:44:26;14.60;62.90
4245;DHT22;2136;48.502;9.194;2023-10-08T04:46:57;14.60;63.00
4245;DHT22;2136;48.502;9.194;2023-10-08T04:49:30;14.50;63.10
4245;DHT22;2136;48.502;9.194;2023-10-08T04:52:01;14.50;63.30
4245;DHT22;2136;48.502;9.194;2023-10-08T04:54:33;14.50;63.60
4245;DHT22;2136;48.502;9.194;2023-10-08T04:57:06;14.40;63.70
4245;DHT22;2136;48.502;9.194;2023-10-08T04:59:40;14.40;63.90
4245;DHT22;2136;48.502;9.194;2023-10-08T05:02:08;14.40;64.00
4245;DHT22;2136;48.502;9.194;2023-10-08T05:04:45;14.30;64.10
4245;DHT22;2136;48.502;9.194;2023-10-08T05:07:23;14.30;64.20
4245;DHT22;2136;48.502;9.194;2023-10-08T05:10:04;14.20;64.20
4245;DHT22;2136;48.502;9.194;2023-10-08T05:12:57;14.20;64.30
4245;DHT22;2136;48.502;9.194;2023-10-08T05:15:42;14.20;64.90
4245;DHT22;2136;48.502;9.194;2023-10-08T05:18:15;14.20;65.40
4245;DHT22;2136;48.502;9.194;2023-10-08T05:20:49;14.10;65.90
4245;DHT22;2136;48.502;9.194;2023-10-08T05:23:29;14.10;65.90
4245;DHT22;2136;48.502;9.194;2023-10-08T05:26:13;14.10;66.10
4245;DHT22;2136;48.502;9.194;2023-10-08T05:28:56;14.10;66.30
4245;DHT22;2136;48.502;9.194;2023-10-08T05:31:27;14.10;66.70
4245;DHT22;2136;48.502;9.194;2023-10-08T05:34:13;14.20;67.00
4245;DHT22;2136;48.502;9.194;2023-10-08T05:36:44;14.10;67.00
4245;DHT22;2136;48.502;9.194;2023-10-08T05:39:38;14.10;66.90
4245;DHT22;2136;48.502;9.194;2023-10-08T05:42:08;14.10;66.90
4245;DHT22;2136;48.502;9.194;2023-10-08T05:44:45;14.10;67.00
4245;DHT22;2136;48.502;9.194;2023-10-08T05:47:13;14.10;67.20
4245;DHT22;2136;48.502;9.194;2023-10-08T05:50:05;14.10;67.20
4245;DHT22;2136;48.502;9.194;2023-10-08T05:52:49;14.20;67.60
4245;DHT22;2136;48.502;9.194;2023-10-08T05:55:29;14.10;67.70
4245;DHT22;2136;48.502;9.194;2023-10-08T05:58:03;14.10;67.80
4245;DHT22;2136;48.502;9.194;2023-10-08T06:00:39;14.20;68.00
4245;DHT22;2136;48.502;9.194;2023-10-08T06:03:13;14.30;68.80
4245;DHT22;2136;48.502;9.194;2023-10-08T06:06:02;14.30;68.20
4245;DHT22;2136;48.502;9.194;2023-10-08T06:08:48;14.30;68.00
4245;DHT22;2136;48.502;9.194;2023-10-08T06:11:48;14.40;68.10
4245;DHT22;2136;48.502;9.194;2023-10-08T06:14:36;14.40;68.00
4245;DHT22;2136;48.502;9.194;2023-10-08T06:17:19;14.40;68.20
4245;DHT22;2136;48.502;9.194;2023-10-08T06:20:00;14.40;68.30
4245;DHT22;2136;48.502;9.194;2023-10-08T06:22:35;14.40;68.50
4245;DHT22;2136;48.502;9.194;2023-10-08T06:25:02;14.40;68.90
4245;DHT22;2136;48.502;9.194;2023-10-08T06:27:44;14.40;69.10
4245;DHT22;2136;48.502;9.194;2023-10-08T06:30:12;14.50;69.20
4245;DHT22;2136;48.502;9.194;2023-10-08T06:32:43;14.50;69.00
4245;DHT22;2136;48.502;9.194;2023-10-08T06:35:11;14.50;68.90
4245;DHT22;2136;48.502;9.194;2023-10-08T06:37:43;14.60;68.90
4245;DHT22;2136;48.502;9.194;2023-10-08T06:40:11;14.60;68.80
4245;DHT22;2136;48.502;9.194;2023-10-08T06:43:00;14.60;68.10
4245;DHT22;2136;48.502;9.194;2023-10-08T06:45:36;14.70;68.10
4245;DHT22;2136;48.502;9.194;2023-10-08T06:48:05;14.70;68.30
4245;DHT22;2136;48.502;9.194;2023-10-08T06:50:34;14.80;68.70
4245;DHT22;2136;48.502;9.194;2023-10-08T06:53:02;14.80;68.90
4245;DHT22;2136;48.502;9.194;2023-10-08T06:55:32;14.90;69.60
4245;DHT22;2136;48.502;9.194;2023-10-08T06:58:02;15.00;69.60
4245;DHT22;2136;48.502;9.194;2023-10-08T07:00:34;15.00;69.50
4245;DHT22;2136;48.502;9.194;2023-10-08T07:03:12;15.20;69.50
4245;DHT22;2136;48.502;9.194;2023-10-08T07:05:41;15.30;69.50
4245;DHT22;2136;48.502;9.194;2023-10-08T07:08:10;15.40;69.70
4245;DHT22;2136;48.502;9.194;2023-10-08T07:10:39;15.50;69.70
4245;DHT22;2136;48.502;9.194;2023-10-08T07:13:09;15.60;69.40
4245;DHT22;2136;48.502;9.194;2023-10-08T07:15:35;15.90;69.20
4245;DHT22;2136;48.502;9.194;2023-10-08T07:18:06;16.10;68.70
4245;DHT22;2136;48.502;9.194;2023-10-08T07:20:39;16.40;68.10
4245;DHT22;2136;48.502;9.194;2023-10-08T07:23:08;16.60;67.50
4245;DHT22;2136;48.502;9.194;2023-10-08T07:25:46;16.90;67.40
4245;DHT22;2136;48.502;9.194;2023-10-08T07:28:19;17.20;65.70
4245;DHT22;2136;48.502;9.194;2023-10-08T07:30:46;17.40;64.40
4245;DHT22;2136;48.502;9.194;2023-10-08T07:33:15;17.60;63.60
4245;DHT22;2136;48.502;9.194;2023-10-08T07:35:45;17.80;63.30
4245;DHT22;2136;48.502;9.194;2023-10-08T07:38:19;18.00;62.80
4245;DHT22;2136;48.502;9.194;2023-10-08T07:40:47;18.10;62.30
4245;DHT22;2136;48.502;9.194;2023-10-08T07:43:15;18.30;61.70
4245;DHT22;2136;48.502;9.194;2023-10-08T07:45:47;18.40;60.90
4245;DHT22;2136;48.502;9.194;2023-10-08T07:48:14;18.60;59.80
4245;DHT22;2136;48.502;9.194;2023-10-08T07:50:44;18.70;59.20
4245;DHT22;2136;48.502;9.194;2023-10-08T07:53:12;18.80;58.00
4245;DHT22;2136;48.502;9.194;2023-10-08T07:55:45;19.00;57.50
4245;DHT22;2136;48.502;9.194;2023-10-08T07:58:13;19.20;57.10
4245;DHT22;2136;48.502;9.194;2023-10-08T08:00:42;19.40;56.70
4245;DHT22;2136;48.502;9.194;2023-10-08T08:03:18;19.60;56.50
4245;DHT22;2136;48.502;9.194;2023-10-08T08:05:46;19.80;55.90
4245;DHT22;2136;48.502;9.194;2023-10-08T08:08:14;20.10;55.80
4245;DHT22;2136;48.502;9.194;2023-10-08T08:10:44;20.20;55.40
4245;DHT22;2136;48.502;9.194;2023-10-08T08:13:11;20.40;55.20
4245;DHT22;2136;48.502;9.194;2023-10-08T08:15:39;20.40;55.00
4245;DHT22;2136;48.502;9.194;2023-10-08T08:18:18;20.50;54.80
4245;DHT22;2136;48.502;9.194;2023-10-08T08:20:49;20.60;54.50
4245;DHT22;2136;48.502;9.194;2023-10-08T08:23:16;20.70;54.30
4245;DHT22;2136;48.502;9.194;2023-10-08T08:25:44;20.70;54.10
4245;DHT22;2136;48.502;9.194;2023-10-08T08:28:32;20.80;53.80
4245;DHT22;2136;48.502;9.194;2023-10-08T08:31:02;20.80;53.40
4245;DHT22;2136;48.502;9.194;2023-10-08T08:33:31;20.70;53.30
4245;DHT22;2136;48.502;9.194;2023-10-08T08:36:18;20.80;53.40
4245;DHT22;2136;48.502;9.194;2023-10-08T08:38:45;20.80;53.40
4245;DHT22;2136;48.502;9.194;2023-10-08T08:41:13;20.80;53.50
4245;DHT22;2136;48.502;9.194;2023-10-08T08:43:44;20.90;53.50
4245;DHT22;2136;48.502;9.194;2023-10-08T08:46:10;21.00;53.70
4245;DHT22;2136;48.502;9.194;2023-10-08T08:48:41;21.30;53.40
4245;DHT22;2136;48.502;9.194;2023-10-08T08:51:10;21.60;52.80
4245;DHT22;2136;48.502;9.194;2023-10-08T08:53:37;21.70;52.30
4245;DHT22;2136;48.502;9.194;2023-10-08T08:56:06;21.90;52.10
4245;DHT22;2136;48.502;9.194;2023-10-08T08:58:35;22.10;51.80
4245;DHT22;2136;48.502;9.194;2023-10-08T09:01:05;22.60;50.30
4245;DHT22;2136;48.502;9.194;2023-10-08T09:03:33;23.20;49.50
4245;DHT22;2136;48.502;9.194;2023-10-08T09:06:01;24.40;48.40
4245;DHT22;2136;48.502;9.194;2023-10-08T09:08:33;25.80;46.60
4245;DHT22;2136;48.502;9.194;2023-10-08T09:11:00;27.00;44.30
4245;DHT22;2136;48.502;9.194;2023-10-08T09:13:31;27.90;42.40
4245;DHT22;2136;48.502;9.194;2023-10-08T09:16:03;28.80;40.90
4245;DHT22;2136;48.502;9.194;2023-10-08T09:18:33;29.50;39.90
4245;DHT22;2136;48.502;9.194;2023-10-08T09:21:15;30.00;39.50
4245;DHT22;2136;48.502;9.194;2023-10-08T09:23:48;30.30;38.20
4245;DHT22;2136;48.502;9.194;2023-10-08T09:26:17;30.60;38.20
4245;DHT22;2136;48.502;9.194;2023-10-08T09:28:46;30.80;37.60
4245;DHT22;2136;48.502;9.194;2023-10-08T09:31:14;30.80;36.90
4245;DHT22;2136;48.502;9.194;2023-10-08T09:33:43;30.50;37.00
4245;DHT22;2136;48.502;9.194;2023-10-08T09:36:10;30.30;37.20
4245;DHT22;2136;48.502;9.194;2023-10-08T09:38:45;30.20;37.60
4245;DHT22;2136;48.502;9.194;2023-10-08T09:41:14;30.20;37.40
4245;DHT22;2136;48.502;9.194;2023-10-08T09:43:41;30.30;37.20
4245;DHT22;2136;48.502;9.194;2023-10-08T09:46:15;30.60;37.00
4245;DHT22;2136;48.502;9.194;2023-10-08T09:48:49;31.00;36.20
4245;DHT22;2136;48.502;9.194;2023-10-08T09:51:16;31.80;35.70
4245;DHT22;2136;48.502;9.194;2023-10-08T09:53:55;33.00;35.00
4245;DHT22;2136;48.502;9.194;2023-10-08T09:56:29;34.40;33.40
4245;DHT22;2136;48.502;9.194;2023-10-08T09:58:56;35.10;31.90
4245;DHT22;2136;48.502;9.194;2023-10-08T10:01:23;36.40;30.90
4245;DHT22;2136;48.502;9.194;2023-10-08T10:03:51;38.10;30.00
4245;DHT22;2136;48.502;9.194;2023-10-08T10:06:19;39.60;28.60
4245;DHT22;2136;48.502;9.194;2023-10-08T10:08:49;40.70;27.50
4245;DHT22;2136;48.502;9.194;2023-10-08T10:11:15;41.20;26.30
4245;DHT22;2136;48.502;9.194;2023-10-08T10:13:43;41.60;25.70
4245;DHT22;2136;48.502;9.194;2023-10-08T10:16:16;41.40;24.90
4245;DHT22;2136;48.502;9.194;2023-10-08T10:18:44;40.90;24.60
4245;DHT22;2136;48.502;9.194;2023-10-08T10:21:26;40.30;24.80
4245;DHT22;2136;48.502;9.194;2023-10-08T10:23:55;39.50;24.40
4245;DHT22;2136;48.502;9.194;2023-10-08T10:26:24;38.90;24.30
4245;DHT22;2136;48.502;9.194;2023-10-08T10:29:21;38.50;24.00
4245;DHT22;2136;48.502;9.194;2023-10-08T10:31:52;38.30;24.30
4245;DHT22;2136;48.502;9.194;2023-10-08T10:34:21;38.40;24.70
4245;DHT22;2136;48.502;9.194;2023-10-08T10:36:50;38.60;24.50
4245;DHT22;2136;48.502;9.194;2023-10-08T10:39:24;38.30;23.90
4245;DHT22;2136;48.502;9.194;2023-10-08T10:41:58;37.90;23.80
4245;DHT22;2136;48.502;9.194;2023-10-08T10:44:27;37.50;24.10
4245;DHT22;2136;48.502;9.194;2023-10-08T10:46:55;37.20;24.50
4245;DHT22;2136;48.502;9.194;2023-10-08T10:49:36;36.90;24.70
4245;DHT22;2136;48.502;9.194;2023-10-08T10:52:14;36.50;24.60
4245;DHT22;2136;48.502;9.194;2023-10-08T10:54:53;35.90;24.60
4245;DHT22;2136;48.502;9.194;2023-10-08T10:57:26;35.30;25.30
4245;DHT22;2136;48.502;9.194;2023-10-08T11:00:03;36.00;26.30
4245;DHT22;2136;48.502;9.194;2023-10-08T11:02:50;38.10;26.40
4245;DHT22;2136;48.502;9.194;2023-10-08T11:05:17;40.30;25.20
4245;DHT22;2136;48.502;9.194;2023-10-08T11:07:46;41.80;24.10
4245;DHT22;2136;48.502;9.194;2023-10-08T11:10:15;43.20;23.60
4245;DHT22;2136;48.502;9.194;2023-10-08T11:12:42;44.40;22.60
4245;DHT22;2136;48.502;9.194;2023-10-08T11:15:12;45.40;22.30
4245;DHT22;2136;48.502;9.194;2023-10-08T11:17:41;46.20;21.10
4245;DHT22;2136;48.502;9.194;2023-10-08T11:20:23;46.60;20.50
4245;DHT22;2136;48.502;9.194;2023-10-08T11:22:50;47.10;20.30
4245;DHT22;2136;48.502;9.194;2023-10-08T11:25:22;47.60;20.00
4245;DHT22;2136;48.502;9.194;2023-10-08T11:27:53;47.10;19.40
4245;DHT22;2136;48.502;9.194;2023-10-08T11:30:27;46.10;19.60
4245;DHT22;2136;48.502;9.194;2023-10-08T11:32:56;44.90;19.70
4245;DHT22;2136;48.502;9.194;2023-10-08T11:35:25;43.50;20.10
4245;DHT22;2136;48.502;9.194;2023-10-08T11:37:58;42.00;20.50
4245;DHT22;2136;48.502;9.194;2023-10-08T11:40:28;40.40;21.20
4245;DHT22;2136;48.502;9.194;2023-10-08T11:42:55;38.80;21.90
4245;DHT22;2136;48.502;9.194;2023-10-08T11:45:24;37.50;22.60
4245;DHT22;2136;48.502;9.194;2023-10-08T11:47:52;36.10;23.50
4245;DHT22;2136;48.502;9.194;2023-10-08T11:50:23;35.10;24.50
4245;DHT22;2136;48.502;9.194;2023-10-08T11:52:57;34.10;25.20
4245;DHT22;2136;48.502;9.194;2023-10-08T11:55:28;33.30;25.90
4245;DHT22;2136;48.502;9.194;2023-10-08T11:57:56;32.70;26.70
4245;DHT22;2136;48.502;9.194;2023-10-08T12:00:23;32.20;27.20
4245;DHT22;2136;48.502;9.194;2023-10-08T12:02:52;31.70;27.70
4245;DHT22;2136;48.502;9.194;2023-10-08T12:05:21;31.30;28.20
4245;DHT22;2136;48.502;9.194;2023-10-08T12:07:50;31.00;28.60
4245;DHT22;2136;48.502;9.194;2023-10-08T12:10:17;30.70;29.00
4245;DHT22;2136;48.502;9.194;2023-10-08T12:12:49;30.60;29.30
4245;DHT22;2136;48.502;9.194;2023-10-08T12:15:18;30.50;29.60
4245;DHT22;2136;48.502;9.194;2023-10-08T12:17:47;30.30;29.80
4245;DHT22;2136;48.502;9.194;2023-10-08T12:20:37;30.20;29.90
4245;DHT22;2136;48.502;9.194;2023-10-08T12:23:04;30.00;30.00
4245;DHT22;2136;48.502;9.194;2023-10-08T12:25:31;29.90;30.30
4245;DHT22;2136;48.502;9.194;2023-10-08T12:28:00;29.80;30.50
4245;DHT22;2136;48.502;9.194;2023-10-08T12:30:29;29.70;30.60
4245;DHT22;2136;48.502;9.194;2023-10-08T12:33:07;29.60;30.90
4245;DHT22;2136;48.502;9.194;2023-10-08T12:35:38;29.50;31.20
4245;DHT22;2136;48.502;9.194;2023-10-08T12:38:05;29.50;31.20
4245;DHT22;2136;48.502;9.194;2023-10-08T12:40:34;29.40;31.30
4245;DHT22;2136;48.502;9.194;2023-10-08T12:43:14;29.30;31.50
4245;DHT22;2136;48.502;9.194;2023-10-08T12:45:45;29.30;31.40
4245;DHT22;2136;48.502;9.194;2023-10-08T12:48:18;29.20;31.80
4245;DHT22;2136;48.502;9.194;2023-10-08T12:50:45;29.10;32.70
4245;DHT22;2136;48.502;9.194;2023-10-08T12:53:21;29.10;33.30
4245;DHT22;2136;48.502;9.194;2023-10-08T12:55:53;29.00;33.00
4245;DHT22;2136;48.502;9.194;2023-10-08T12:58:24;29.00;33.00
4245;DHT22;2136;48.502;9.194;2023-10-08T13:00:55;29.10;33.20
4245;DHT22;2136;48.502;9.194;2023-10-08T13:03:27;29.30;32.60
4245;DHT22;2136;48.502;9.194;2023-10-08T13:05:57;29.50;32.50
4245;DHT22;2136;48.502;9.194;2023-10-08T13:08:29;29.60;32.00
4245;DHT22;2136;48.502;9.194;2023-10-08T13:10:56;29.80;32.30
4245;DHT22;2136;48.502;9.194;2023-10-08T13:13:27;29.80;32.40
4245;DHT22;2136;48.502;9.194;2023-10-08T13:15:54;29.80;32.10
4245;DHT22;2136;48.502;9.194;2023-10-08T13:18:24;29.80;32.00
4245;DHT22;2136;48.502;9.194;2023-10-08T13:20:51;29.80;31.40
4245;DHT22;2136;48.502;9.194;2023-10-08T13:23:18;29.80;31.20
4245;DHT22;2136;48.502;9.194;2023-10-08T13:25:46;29.80;30.70
4245;DHT22;2136;48.502;9.194;2023-10-08T13:28:19;29.90;30.70
4245;DHT22;2136;48.502;9.194;2023-10-08T13:30:49;30.10;30.90
4245;DHT22;2136;48.502;9.194;2023-10-08T13:33:19;30.30;30.50
4245;DHT22;2136;48.502;9.194;2023-10-08T13:35:46;30.50;30.10
4245;DHT22;2136;48.502;9.194;2023-10-08T13:38:15;30.80;29.70
4245;DHT22;2136;48.502;9.194;2023-10-08T13:40:45;30.90;29.50
4245;DHT22;2136;48.502;9.194;2023-10-08T13:43:28;30.80;29.40
4245;DHT22;2136;48.502;9.194;2023-10-08T13:46:01;30.80;29.40
4245;DHT22;2136;48.502;9.194;2023-10-08T13:48:30;30.80;29.40
4245;DHT22;2136;48.502;9.194;2023-10-08T13:51:00;30.80;29.50
4245;DHT22;2136;48.502;9.194;2023-10-08T13:53:27;30.80;29.70
4245;DHT22;2136;48.502;9.194;2023-10-08T13:55:57;31.00;29.80
4245;DHT22;2136;48.502;9.194;2023-10-08T13:58:26;31.20;29.80
4245;DHT22;2136;48.502;9.194;2023-10-08T14:00:54;31.20;29.30
4245;DHT22;2136;48.502;9.194;2023-10-08T14:03:22;31.20;29.30
4245;DHT22;2136;48.502;9.194;2023-10-08T14:05:50;31.30;29.20
4245;DHT22;2136;48.502;9.194;2023-10-08T14:08:17;31.60;29.30
4245;DHT22;2136;48.502;9.194;2023-10-08T14:10:44;31.80;29.30
4245;DHT22;2136;48.502;9.194;2023-10-08T14:13:14;31.90;29.30
4245;DHT22;2136;48.502;9.194;2023-10-08T14:15:45;31.90;29.30
4245;DHT22;2136;48.502;9.194;2023-10-08T14:18:14;31.80;29.30
4245;DHT22;2136;48.502;9.194;2023-10-08T14:20:44;31.60;29.20
4245;DHT22;2136;48.502;9.194;2023-10-08T14:23:15;31.40;29.70
4245;DHT22;2136;48.502;9.194;2023-10-08T14:25:43;31.20;29.70
4245;DHT22;2136;48.502;9.194;2023-10-08T14:28:11;31.00;29.80
4245;DHT22;2136;48.502;9.194;2023-10-08T14:30:48;30.80;29.90
4245;DHT22;2136;48.502;9.194;2023-10-08T14:33:20;30.50;29.90
4245;DHT22;2136;48.502;9.194;2023-10-08T14:35:53;30.40;30.20
4245;DHT22;2136;48.502;9.194;2023-10-08T14:38:40;30.30;31.30
4245;DHT22;2136;48.502;9.194;2023-10-08T14:41:24;30.00;32.50
4245;DHT22;2136;48.502;9.194;2023-10-08T14:44:08;29.80;33.00
4245;DHT22;2136;48.502;9.194;2023-10-08T14:46:36;29.70;33.80
4245;DHT22;2136;48.502;9.194;2023-10-08T14:49:04;29.60;34.30
4245;DHT22;2136;48.502;9.194;2023-10-08T14:51:37;29.50;34.80
4245;DHT22;2136;48.502;9.194;2023-10-08T14:54:06;29.40;35.40
4245;DHT22;2136;48.502;9.194;2023-10-08T14:56:35;29.20;35.60
4245;DHT22;2136;48.502;9.194;2023-10-08T14:59:02;29.10;36.00
4245;DHT22;2136;48.502;9.194;2023-10-08T15:01:29;28.90;36.20
4245;DHT22;2136;48.502;9.194;2023-10-08T15:03:59;28.70;36.60
4245;DHT22;2136;48.502;9.194;2023-10-08T15:06:29;28.60;37.00
4245;DHT22;2136;48.502;9.194;2023-10-08T15:08:58;28.40;37.30
4245;DHT22;2136;48.502;9.194;2023-10-08T15:11:24;28.30;37.40
4245;DHT22;2136;48.502;9.194;2023-10-08T15:13:52;28.10;37.70
4245;DHT22;2136;48.502;9.194;2023-10-08T15:16:20;27.90;37.90
4245;DHT22;2136;48.502;9.194;2023-10-08T15:18:48;27.80;38.40
4245;DHT22;2136;48.502;9.194;2023-10-08T15:21:16;27.60;38.60
4245;DHT22;2136;48.502;9.194;2023-10-08T15:23:43;27.40;38.70
4245;DHT22;2136;48.502;9.194;2023-10-08T15:26:13;27.30;39.40
4245;DHT22;2136;48.502;9.194;2023-10-08T15:28:42;27.10;39.30
4245;DHT22;2136;48.502;9.194;2023-10-08T15:31:09;27.00;39.40
4245;DHT22;2136;48.502;9.194;2023-10-08T15:33:36;26.80;39.60
4245;DHT22;2136;48.502;9.194;2023-10-08T15:36:04;26.80;39.80
4245;DHT22;2136;48.502;9.194;2023-10-08T15:38:30;26.70;40.00
4245;DHT22;2136;48.502;9.194;2023-10-08T15:40:57;26.60;39.70
4245;DHT22;2136;48.502;9.194;2023-10-08T15:43:26;26.50;39.90
4245;DHT22;2136;48.502;9.194;2023-10-08T15:45:53;26.50;40.00
4245;DHT22;2136;48.502;9.194;2023-10-08T15:48:20;26.30;40.00
4245;DHT22;2136;48.502;9.194;2023-10-08T15:50:50;26.20;40.30
4245;DHT22;2136;48.502;9.194;2023-10-08T15:53:17;26.10;40.60
4245;DHT22;2136;48.502;9.194;2023-10-08T15:55:44;26.00;40.80
4245;DHT22;2136;48.502;9.194;2023-10-08T15:58:12;25.90;41.00
4245;DHT22;2136;48.502;9.194;2023-10-08T16:00:40;25.90;41.10
4245;DHT22;2136;48.502;9.194;2023-10-08T16:03:07;25.80;41.10
4245;DHT22;2136;48.502;9.194;2023-10-08T16:05:35;25.70;41.00
4245;DHT22;2136;48.502;9.194;2023-10-08T16:08:02;25.60;41.20
4245;DHT22;2136;48.502;9.194;2023-10-08T16:10:29;25.60;41.40
4245;DHT22;2136;48.502;9.194;2023-10-08T16:12:55;25.50;41.30
4245;DHT22;2136;48.502;9.194;2023-10-08T16:15:23;25.50;41.40
4245;DHT22;2136;48.502;9.194;2023-10-08T16:17:51;25.40;41.50
4245;DHT22;2136;48.502;9.194;2023-10-08T16:20:18;25.30;41.70
4245;DHT22;2136;48.502;9.194;2023-10-08T16:22:46;25.20;41.70
4245;DHT22;2136;48.502;9.194;2023-10-08T16:25:15;25.10;41.80
4245;DHT22;2136;48.502;9.194;2023-10-08T16:27:43;25.00;42.00